createdAt,value
2023-02-27T00:00:00.978Z,6.03
2023-02-27T00:02:27.717Z,3.13
2023-02-27T00:04:54.747Z,2.40
2023-02-27T00:07:25.920Z,2.13
2023-02-27T00:09:53.258Z,2.95
2023-02-27T00:12:20.239Z,2.38
2023-02-27T00:14:47.057Z,3.03
2023-02-27T00:17:13.877Z,2.75
2023-02-27T00:19:40.541Z,2.88
2023-02-27T00:22:07.250Z,2.63
2023-02-27T00:24:33.996Z,2.70
2023-02-27T00:27:00.788Z,3.53
2023-02-27T00:29:27.464Z,3.72
2023-02-27T00:31:54.350Z,2.63
2023-02-27T00:34:21.257Z,3.17
2023-02-27T00:36:47.910Z,2.97
2023-02-27T00:39:15.923Z,2.40
2023-02-27T00:41:42.627Z,3.30
2023-02-27T00:44:09.366Z,2.40
2023-02-27T00:46:36.754Z,2.65
2023-02-27T00:49:04.092Z,2.40
2023-02-27T00:51:30.841Z,2.40
2023-02-27T00:53:57.723Z,2.42
2023-02-27T00:56:24.594Z,2.95
2023-02-27T00:58:51.301Z,2.10
2023-02-27T01:01:18.005Z,2.63
2023-02-27T01:03:44.852Z,2.65
2023-02-27T01:06:11.998Z,2.85
2023-02-27T01:08:38.791Z,2.60
2023-02-27T01:11:05.927Z,2.53
2023-02-27T01:13:32.700Z,2.75
2023-02-27T01:15:59.451Z,2.25
2023-02-27T01:18:26.185Z,2.40
2023-02-27T01:20:56.822Z,2.10
2023-02-27T01:23:23.638Z,2.55
2023-02-27T01:25:50.464Z,2.40
2023-02-27T01:28:17.187Z,2.63
2023-02-27T01:30:44.237Z,2.58
2023-02-27T01:33:14.539Z,2.60
2023-02-27T01:35:41.210Z,2.70
2023-02-27T01:38:07.954Z,2.80
2023-02-27T01:40:39.991Z,2.45
2023-02-27T01:43:14.361Z,2.40
2023-02-27T01:45:42.724Z,2.83
2023-02-27T01:48:26.830Z,2.13
2023-02-27T01:50:58.850Z,2.33
2023-02-27T01:53:28.816Z,2.55
2023-02-27T01:56:00.823Z,2.17
2023-02-27T01:58:27.767Z,2.38
2023-02-27T02:00:55.747Z,2.40
2023-02-27T02:03:28.867Z,2.13
2023-02-27T02:05:58.238Z,2.70
2023-02-27T02:08:29.123Z,2.53
2023-02-27T02:10:58.595Z,2.10
2023-02-27T02:16:06.938Z,2.30
2023-02-27T02:18:53.711Z,2.53
2023-02-27T02:21:44.855Z,2.30
2023-02-27T02:25:01.335Z,2.47
2023-02-27T02:27:46.772Z,1.92
2023-02-27T02:30:24.180Z,2.00
2023-02-27T02:33:09.541Z,1.90
2023-02-27T02:36:04.133Z,2.08
2023-02-27T02:39:07.585Z,2.25
2023-02-27T02:41:58.655Z,2.22
2023-02-27T02:44:49.889Z,1.95
2023-02-27T02:47:21.049Z,2.10
2023-02-27T02:50:00.865Z,2.47
2023-02-27T02:52:54.947Z,2.00
2023-02-27T02:55:32.706Z,1.83
2023-02-27T02:58:11.405Z,2.00
2023-02-27T03:00:48.689Z,1.50
2023-02-27T03:03:24.268Z,2.05
2023-02-27T03:05:58.016Z,2.15
2023-02-27T03:08:34.273Z,2.20
2023-02-27T03:11:03.810Z,2.67
2023-02-27T03:16:06.268Z,2.00
2023-02-27T03:18:40.796Z,2.22
2023-02-27T03:21:15.997Z,2.17
2023-02-27T03:23:45.048Z,2.40
2023-02-27T03:28:55.901Z,2.20
2023-02-27T03:31:30.346Z,2.15
2023-02-27T03:34:04.657Z,2.55
2023-02-27T03:36:59.352Z,2.65
2023-02-27T03:39:38.141Z,2.78
2023-02-27T03:42:16.548Z,3.08
2023-02-27T03:45:33.886Z,3.30
2023-02-27T03:48:02.535Z,3.58
2023-02-27T03:50:29.807Z,3.70
2023-02-27T03:52:57.416Z,4.18
2023-02-27T03:55:34.959Z,3.30
2023-02-27T03:58:02.142Z,2.72
2023-02-27T04:00:29.589Z,4.25
2023-02-27T04:02:59.314Z,3.20
2023-02-27T04:05:28.642Z,2.67
2023-02-27T04:08:26.137Z,3.08
2023-02-27T04:11:04.688Z,3.20
2023-02-27T04:13:37.108Z,2.58
2023-02-27T04:16:34.898Z,2.53
2023-02-27T04:19:17.028Z,3.40
2023-02-27T04:22:15.598Z,4.15
2023-02-27T04:24:48.202Z,3.33
2023-02-27T04:27:23.130Z,3.92
2023-02-27T04:30:08.430Z,4.15
2023-02-27T04:32:41.331Z,3.53
2023-02-27T04:35:26.277Z,3.50
2023-02-27T04:38:00.107Z,3.10
2023-02-27T04:40:39.029Z,2.85
2023-02-27T04:43:09.771Z,3.00
2023-02-27T04:45:41.365Z,3.10
2023-02-27T04:48:26.265Z,2.85
2023-02-27T04:51:16.620Z,2.65
2023-02-27T04:54:00.696Z,2.67
2023-02-27T04:56:34.929Z,2.70
2023-02-27T04:59:19.446Z,2.70
2023-02-27T05:02:02.117Z,2.63
2023-02-27T05:04:33.011Z,3.00
2023-02-27T05:07:02.123Z,2.55
2023-02-27T05:09:38.563Z,2.90
2023-02-27T05:12:37.460Z,3.13
2023-02-27T05:15:40.117Z,4.15
2023-02-27T05:18:10.356Z,2.67
2023-02-27T05:20:49.205Z,3.20
2023-02-27T05:23:24.375Z,2.70
2023-02-27T05:26:16.950Z,2.70
2023-02-27T05:28:55.415Z,2.58
2023-02-27T05:31:51.688Z,3.10
2023-02-27T05:34:35.388Z,3.58
2023-02-27T05:37:15.023Z,3.45
2023-02-27T05:39:45.127Z,4.63
2023-02-27T05:42:18.313Z,4.78
2023-02-27T05:44:53.022Z,4.85
2023-02-27T05:47:23.641Z,4.32
2023-02-27T05:49:56.514Z,4.00
2023-02-27T05:52:25.147Z,3.92
2023-02-27T05:55:03.933Z,3.00
2023-02-27T05:57:44.138Z,4.47
2023-02-27T06:00:34.912Z,3.78
2023-02-27T06:03:01.642Z,4.00
2023-02-27T06:05:29.315Z,4.00
2023-02-27T06:07:56.054Z,4.00
2023-02-27T06:10:23.664Z,4.22
2023-02-27T06:12:50.422Z,4.15
2023-02-27T06:15:18.752Z,3.92
2023-02-27T06:17:45.605Z,3.58
2023-02-27T06:20:13.048Z,4.18
2023-02-27T06:22:39.823Z,3.55
2023-02-27T06:25:06.915Z,4.20
2023-02-27T06:27:33.590Z,4.00
2023-02-27T06:30:00.411Z,4.15
2023-02-27T06:32:28.023Z,3.67
2023-02-27T06:34:55.001Z,3.92
2023-02-27T06:37:22.610Z,4.10
2023-02-27T06:39:49.333Z,4.20
2023-02-27T06:42:16.408Z,3.70
2023-02-27T06:44:43.097Z,3.63
2023-02-27T06:47:09.879Z,4.00
2023-02-27T06:49:36.686Z,3.65
2023-02-27T06:52:03.450Z,4.40
2023-02-27T06:54:30.177Z,4.18
2023-02-27T06:56:56.977Z,5.15
2023-02-27T06:59:23.689Z,5.30
2023-02-27T07:01:50.389Z,5.55
2023-02-27T07:04:17.579Z,4.90
2023-02-27T07:07:34.942Z,5.45
2023-02-27T07:09:31.505Z,6.72
2023-02-27T07:11:58.192Z,5.65
2023-02-27T07:14:25.928Z,5.70
2023-02-27T07:16:55.526Z,4.65
2023-02-27T07:19:23.408Z,5.25
2023-02-27T07:21:50.795Z,4.95
2023-02-27T07:24:17.723Z,4.82
2023-02-27T07:26:44.451Z,4.95
2023-02-27T07:29:11.353Z,5.72
2023-02-27T07:31:38.263Z,5.03
2023-02-27T07:34:05.029Z,5.55
2023-02-27T07:36:31.744Z,5.10
2023-02-27T07:38:58.796Z,6.28
2023-02-27T07:41:30.799Z,6.07
2023-02-27T07:44:00.397Z,6.22
2023-02-27T07:46:27.958Z,6.63
2023-02-27T07:48:55.156Z,6.38
2023-02-27T07:51:21.988Z,6.53
2023-02-27T07:53:48.737Z,6.28
2023-02-27T07:56:15.733Z,6.40
2023-02-27T07:58:42.541Z,6.07
2023-02-27T08:01:09.300Z,7.22
2023-02-27T08:03:36.148Z,6.22
2023-02-27T08:06:02.931Z,6.78
2023-02-27T08:08:29.846Z,6.20
2023-02-27T08:10:56.826Z,5.97
2023-02-27T08:13:42.292Z,7.88
2023-02-27T08:16:09.529Z,8.60
2023-02-27T08:18:36.338Z,6.80
2023-02-27T08:21:05.120Z,7.63
2023-02-27T08:23:34.565Z,8.32
2023-02-27T08:26:02.536Z,8.02
2023-02-27T08:28:29.507Z,7.88
2023-02-27T08:30:56.578Z,6.65
2023-02-27T08:33:24.542Z,6.50
2023-02-27T08:35:51.247Z,6.45
2023-02-27T08:38:17.975Z,5.75
2023-02-27T08:40:44.692Z,4.57
2023-02-27T08:43:11.391Z,4.85
2023-02-27T08:45:38.143Z,4.70
2023-02-27T08:48:05.196Z,4.40
2023-02-27T08:50:31.953Z,5.72
2023-02-27T08:52:58.674Z,5.40
2023-02-27T08:55:25.494Z,4.60
2023-02-27T08:57:52.224Z,4.80
2023-02-27T09:00:19.456Z,4.53
2023-02-27T09:02:46.270Z,4.82
2023-02-27T09:05:13.650Z,4.22
2023-02-27T09:07:40.511Z,4.25
2023-02-27T09:10:07.570Z,5.95
2023-02-27T09:12:34.346Z,3.55
2023-02-27T09:15:01.183Z,3.30
2023-02-27T09:17:27.892Z,3.15
2023-02-27T09:19:57.069Z,2.65
2023-02-27T09:22:24.747Z,3.20
2023-02-27T09:24:51.632Z,2.88
2023-02-27T09:27:18.359Z,21.60
2023-02-27T09:29:45.070Z,11.82
2023-02-27T09:32:12.526Z,3.80
2023-02-27T09:34:39.371Z,3.75
2023-02-27T09:37:06.094Z,3.67
2023-02-27T09:39:32.806Z,3.63
2023-02-27T09:42:19.476Z,3.22
2023-02-27T09:44:49.574Z,3.53
2023-02-27T09:47:26.890Z,4.32
2023-02-27T09:50:04.316Z,3.58
2023-02-27T09:52:35.323Z,2.80
2023-02-27T09:55:03.184Z,2.80
2023-02-27T09:57:51.990Z,2.65
2023-02-27T10:00:50.855Z,2.90
2023-02-27T10:03:55.438Z,2.97
2023-02-27T10:06:30.923Z,3.13
2023-02-27T10:09:37.477Z,3.17
2023-02-27T10:12:25.205Z,2.92
2023-02-27T10:15:05.934Z,2.70
2023-02-27T10:17:38.894Z,2.70
2023-02-27T10:20:17.046Z,2.10
2023-02-27T10:22:47.350Z,2.35
2023-02-27T10:25:30.873Z,3.22
2023-02-27T10:28:11.381Z,2.65
2023-02-27T10:33:15.208Z,1.95
2023-02-27T10:35:44.825Z,1.83
2023-02-27T10:41:00.417Z,3.05
2023-02-27T10:43:27.175Z,2.40
2023-02-27T10:45:54.563Z,1.90
2023-02-27T10:48:23.112Z,2.30
2023-02-27T10:50:53.965Z,3.33
2023-02-27T10:53:27.155Z,3.15
2023-02-27T10:56:07.095Z,3.38
2023-02-27T10:58:38.186Z,2.50
2023-02-27T11:01:07.816Z,2.72
2023-02-27T11:03:37.675Z,3.45
2023-02-27T11:06:26.659Z,2.97
2023-02-27T11:09:17.700Z,2.97
2023-02-27T11:11:44.680Z,2.50
2023-02-27T11:14:31.541Z,2.83
2023-02-27T11:17:03.329Z,2.30
2023-02-27T11:19:34.168Z,2.50
2023-02-27T11:22:06.759Z,2.90
2023-02-27T11:24:34.459Z,1.95
2023-02-27T11:27:22.078Z,2.10
2023-02-27T11:30:22.710Z,2.28
2023-02-27T11:32:51.487Z,2.38
2023-02-27T11:35:29.687Z,2.20
2023-02-27T11:37:59.937Z,2.63
2023-02-27T11:40:41.030Z,2.10
2023-02-27T11:43:16.901Z,1.83
2023-02-27T11:46:29.144Z,2.00
2023-02-27T11:49:11.874Z,1.70
2023-02-27T11:52:02.481Z,2.00
2023-02-27T11:54:42.897Z,1.98
2023-02-27T11:57:33.834Z,2.25
2023-02-27T12:00:19.829Z,1.70
2023-02-27T12:03:22.081Z,1.83
2023-02-27T12:05:56.063Z,3.00
2023-02-27T12:08:54.011Z,2.58
2023-02-27T12:11:30.160Z,2.17
2023-02-27T12:14:23.386Z,2.42
2023-02-27T12:16:59.219Z,2.22
2023-02-27T12:19:56.265Z,2.55
2023-02-27T12:22:29.100Z,3.13
2023-02-27T12:25:20.997Z,3.00
2023-02-27T12:28:03.151Z,2.28
2023-02-27T12:30:39.141Z,1.40
2023-02-27T12:33:42.095Z,1.70
2023-02-27T12:36:14.094Z,1.95
2023-02-27T12:38:42.045Z,1.90
2023-02-27T12:41:23.446Z,1.40
2023-02-27T12:43:56.152Z,1.52
2023-02-27T12:46:50.724Z,1.10
2023-02-27T12:50:00.553Z,1.80
2023-02-27T12:52:44.361Z,1.60
2023-02-27T12:55:17.905Z,2.33
2023-02-27T12:58:31.374Z,3.50
2023-02-27T13:01:01.778Z,2.42
2023-02-27T13:03:51.589Z,1.58
2023-02-27T13:06:33.149Z,1.63
2023-02-27T13:09:15.687Z,1.50
2023-02-27T13:11:54.287Z,1.80
2023-02-27T13:14:30.346Z,1.47
2023-02-27T13:17:02.403Z,1.35
2023-02-27T13:19:53.165Z,1.50
2023-02-27T13:22:29.117Z,1.40
2023-02-27T13:25:00.145Z,1.75
2023-02-27T13:27:33.780Z,2.10
2023-02-27T13:30:03.249Z,1.77
2023-02-27T13:32:44.942Z,1.48
2023-02-27T13:35:24.153Z,2.80
2023-02-27T13:37:51.078Z,2.35
2023-02-27T13:40:47.224Z,1.70
2023-02-27T13:43:40.553Z,1.75
2023-02-27T13:46:28.479Z,2.10
2023-02-27T13:49:20.092Z,2.33
2023-02-27T13:52:00.426Z,1.40
2023-02-27T13:54:39.776Z,1.23
2023-02-27T13:57:17.987Z,1.60
2023-02-27T13:59:53.564Z,1.80
2023-02-27T14:02:46.591Z,2.58
2023-02-27T14:05:31.095Z,1.30
2023-02-27T14:08:09.075Z,1.42
2023-02-27T14:10:39.201Z,1.48
2023-02-27T14:13:26.821Z,1.50
2023-02-27T14:15:57.019Z,1.70
2023-02-27T14:18:50.130Z,1.50
2023-02-27T14:21:51.690Z,1.60
2023-02-27T14:24:28.380Z,1.42
2023-02-27T14:26:56.517Z,1.83
2023-02-27T14:29:31.253Z,2.40
2023-02-27T14:32:04.888Z,2.58
2023-02-27T14:34:31.927Z,1.90
2023-02-27T14:37:02.468Z,3.35
2023-02-27T14:39:38.692Z,2.00
2023-02-27T14:42:30.802Z,2.25
2023-02-27T14:44:57.820Z,1.83
2023-02-27T14:47:24.477Z,2.30
2023-02-27T14:49:51.267Z,1.90
2023-02-27T14:52:22.431Z,1.92
2023-02-27T14:54:50.275Z,1.70
2023-02-27T14:57:27.126Z,1.75
2023-02-27T14:59:54.788Z,1.90
2023-02-27T15:02:26.091Z,2.70
2023-02-27T15:05:20.876Z,2.05
2023-02-27T15:07:48.157Z,3.67
2023-02-27T15:10:25.888Z,2.00
2023-02-27T15:12:52.846Z,3.10
2023-02-27T15:15:21.268Z,1.83
2023-02-27T15:17:52.887Z,1.90
2023-02-27T15:20:31.933Z,2.13
2023-02-27T15:23:21.944Z,1.95
2023-02-27T15:25:48.720Z,3.05
2023-02-27T15:28:27.875Z,2.22
2023-02-27T15:30:56.544Z,2.38
2023-02-27T15:33:33.524Z,2.00
2023-02-27T15:36:01.589Z,5.55
2023-02-27T15:38:33.633Z,4.60
2023-02-27T15:41:02.587Z,2.45
2023-02-27T15:43:30.550Z,2.08
2023-02-27T15:45:58.373Z,2.00
2023-02-27T15:48:25.766Z,1.30
2023-02-27T15:50:57.018Z,1.90
2023-02-27T15:53:29.792Z,1.63
2023-02-27T15:55:59.842Z,1.40
2023-02-27T15:58:29.930Z,1.50
2023-02-27T16:01:11.479Z,1.55
2023-02-27T16:03:43.996Z,1.77
2023-02-27T16:06:23.495Z,2.08
2023-02-27T16:11:31.891Z,2.13
2023-02-27T16:13:59.429Z,2.33
2023-02-27T16:16:28.519Z,2.83
2023-02-27T16:19:00.147Z,2.42
2023-02-27T16:21:31.137Z,1.88
2023-02-27T16:24:19.179Z,1.77
2023-02-27T16:26:51.374Z,1.92
2023-02-27T16:29:21.357Z,2.15
2023-02-27T16:31:51.573Z,2.40
2023-02-27T16:34:44.980Z,2.95
2023-02-27T16:37:21.929Z,4.10
2023-02-27T16:39:54.496Z,4.35
2023-02-27T16:42:21.846Z,5.18
2023-02-27T16:44:48.667Z,4.18
2023-02-27T16:47:15.718Z,4.68
2023-02-27T16:49:44.447Z,3.08
2023-02-27T16:52:12.062Z,4.27
2023-02-27T16:54:38.753Z,4.50
2023-02-27T16:57:05.510Z,5.75
2023-02-27T16:59:36.107Z,4.07
2023-02-27T17:02:07.221Z,4.07
2023-02-27T17:04:34.017Z,3.10
2023-02-27T17:07:06.399Z,3.10
2023-02-27T17:09:33.692Z,2.63
2023-02-27T17:12:00.389Z,3.03
2023-02-27T17:14:27.111Z,4.20
2023-02-27T17:16:53.925Z,4.22
2023-02-27T17:19:22.285Z,4.07
2023-02-27T17:21:50.544Z,3.50
2023-02-27T17:24:17.683Z,4.03
2023-02-27T17:26:44.435Z,4.30
2023-02-27T17:29:12.172Z,3.90
2023-02-27T17:31:38.964Z,5.63
2023-02-27T17:34:05.751Z,6.78
2023-02-27T17:36:32.742Z,7.25
2023-02-27T17:39:02.798Z,7.72
2023-02-27T17:41:31.639Z,9.60
2023-02-27T17:43:59.589Z,8.43
2023-02-27T17:46:28.562Z,7.35
2023-02-27T17:49:00.048Z,7.20
2023-02-27T17:51:28.869Z,13.70
2023-02-27T17:53:56.005Z,12.43
2023-02-27T17:56:23.125Z,10.23
2023-02-27T17:58:50.362Z,9.80
2023-02-27T18:01:22.996Z,7.25
2023-02-27T18:03:50.415Z,5.38
2023-02-27T18:06:18.409Z,6.60
2023-02-27T18:08:45.747Z,12.35
2023-02-27T18:11:15.383Z,16.80
2023-02-27T18:16:10.865Z,15.85
2023-02-27T18:18:40.277Z,16.63
2023-02-27T18:21:10.155Z,16.42
2023-02-27T18:23:37.444Z,14.57
2023-02-27T18:26:04.727Z,12.07
2023-02-27T18:28:31.548Z,9.30
2023-02-27T18:30:58.719Z,10.05
2023-02-27T18:33:25.650Z,9.27
2023-02-27T18:35:52.436Z,12.23
2023-02-27T18:38:19.373Z,9.63
2023-02-27T18:40:46.251Z,12.40
2023-02-27T18:43:13.991Z,13.35
2023-02-27T18:45:41.338Z,12.20
2023-02-27T18:48:08.302Z,13.10
2023-02-27T18:50:35.290Z,12.55
2023-02-27T18:53:02.219Z,13.15
2023-02-27T18:55:28.806Z,9.23
2023-02-27T18:57:55.523Z,8.57
2023-02-27T19:00:24.316Z,8.02
2023-02-27T19:02:51.174Z,7.10
2023-02-27T19:05:18.172Z,6.85
2023-02-27T19:07:44.793Z,7.03
2023-02-27T19:10:12.399Z,6.03
2023-02-27T19:12:39.117Z,7.10
2023-02-27T19:15:06.192Z,7.38
2023-02-27T19:17:33.694Z,5.95
2023-02-27T19:20:00.476Z,7.95
2023-02-27T19:22:29.487Z,8.98
2023-02-27T19:24:57.051Z,8.77
2023-02-27T19:27:23.816Z,8.75
2023-02-27T19:29:50.974Z,9.07
2023-02-27T19:32:18.192Z,8.52
2023-02-27T19:34:45.878Z,10.05
2023-02-27T19:37:12.657Z,9.15
2023-02-27T19:39:39.340Z,9.52
2023-02-27T19:42:05.979Z,8.55
2023-02-27T19:44:32.845Z,6.90
2023-02-27T19:47:00.261Z,8.02
2023-02-27T19:49:27.067Z,8.25
2023-02-27T19:51:53.761Z,10.52
2023-02-27T19:54:20.419Z,9.10
2023-02-27T19:56:47.131Z,8.70
2023-02-27T19:59:13.884Z,9.10
2023-02-27T20:01:41.435Z,9.32
2023-02-27T20:04:08.664Z,9.70
2023-02-27T20:06:41.893Z,10.25
2023-02-27T20:09:11.515Z,8.88
2023-02-27T20:11:38.265Z,11.65
2023-02-27T20:14:05.200Z,10.10
2023-02-27T20:16:35.692Z,10.18
2023-02-27T20:19:07.468Z,9.82
2023-02-27T20:21:34.254Z,9.85
2023-02-27T20:24:01.597Z,9.13
2023-02-27T20:26:40.100Z,9.65
2023-02-27T20:29:27.089Z,10.40
2023-02-27T20:31:55.457Z,8.43
2023-02-27T20:34:26.238Z,8.63
2023-02-27T20:36:54.963Z,7.13
2023-02-27T20:39:21.851Z,7.77
2023-02-27T20:41:49.374Z,8.05
2023-02-27T20:44:16.388Z,8.20
2023-02-27T20:46:44.057Z,8.35
2023-02-27T20:49:14.365Z,9.68
2023-02-27T20:51:41.178Z,11.40
2023-02-27T20:54:11.739Z,10.10
2023-02-27T20:56:41.270Z,10.07
2023-02-27T20:59:11.901Z,10.43
2023-02-27T21:01:38.908Z,12.00
2023-02-27T21:04:06.049Z,12.02
2023-02-27T21:06:33.259Z,20.35
2023-02-27T21:09:04.184Z,16.00
2023-02-27T21:11:32.268Z,17.70
2023-02-27T21:14:03.831Z,17.25
2023-02-27T21:16:30.641Z,16.42
2023-02-27T21:18:57.771Z,10.93
2023-02-27T21:21:28.090Z,10.60
2023-02-27T21:23:55.343Z,11.43
2023-02-27T21:26:25.507Z,11.55
2023-02-27T21:28:54.434Z,11.55
2023-02-27T21:31:23.227Z,6.57
2023-02-27T21:33:51.165Z,5.57
2023-02-27T21:36:18.433Z,5.63
2023-02-27T21:38:46.066Z,5.90
2023-02-27T21:41:13.438Z,6.97
2023-02-27T21:43:40.683Z,6.68
2023-02-27T21:46:09.764Z,5.78
2023-02-27T21:48:36.693Z,5.60
2023-02-27T21:51:04.706Z,5.22
2023-02-27T21:53:31.882Z,4.57
2023-02-27T21:56:09.908Z,5.40
2023-02-27T21:58:37.324Z,5.15
2023-02-27T22:01:18.162Z,5.93
2023-02-27T22:03:47.436Z,5.72
2023-02-27T22:06:15.478Z,6.80
2023-02-27T22:08:43.040Z,6.47
2023-02-27T22:11:10.626Z,6.30
2023-02-27T22:13:37.814Z,6.70
2023-02-27T22:16:11.994Z,6.32
2023-02-27T22:18:40.686Z,5.60
2023-02-27T22:21:10.761Z,5.70
2023-02-27T22:23:38.318Z,6.20
2023-02-27T22:26:08.023Z,5.32
2023-02-27T22:28:35.617Z,5.93
2023-02-27T22:31:16.005Z,6.13
2023-02-27T22:33:44.434Z,5.70
2023-02-27T22:36:20.281Z,5.60
2023-02-27T22:38:48.299Z,6.50
2023-02-27T22:41:18.149Z,5.97
2023-02-27T22:43:45.720Z,6.60
2023-02-27T22:46:16.548Z,5.18
2023-02-27T22:48:43.677Z,5.53
2023-02-27T22:51:14.627Z,5.65
2023-02-27T22:53:43.515Z,5.47
2023-02-27T22:56:13.177Z,8.30
2023-02-27T22:58:41.784Z,6.57
2023-02-27T23:01:22.823Z,6.32
2023-02-27T23:03:51.994Z,6.32
2023-02-27T23:06:21.926Z,7.13
2023-02-27T23:08:49.104Z,6.90
2023-02-27T23:11:17.506Z,6.65
2023-02-27T23:13:44.677Z,6.72
2023-02-27T23:16:13.534Z,5.75
2023-02-27T23:18:42.197Z,4.63
2023-02-27T23:21:10.123Z,3.93
2023-02-27T23:23:37.097Z,4.57
2023-02-27T23:26:05.806Z,4.13
2023-02-27T23:28:35.213Z,4.05
2023-02-27T23:31:02.466Z,3.72
2023-02-27T23:33:30.031Z,3.97
2023-02-27T23:36:00.949Z,4.07
2023-02-27T23:38:28.524Z,4.28
2023-02-27T23:40:55.556Z,4.47
2023-02-27T23:43:22.815Z,4.28
2023-02-27T23:45:49.678Z,4.40
2023-02-27T23:48:16.631Z,4.63
2023-02-27T23:50:44.732Z,4.50
2023-02-27T23:53:13.616Z,4.43
2023-02-27T23:55:41.454Z,4.70
2023-02-27T23:58:10.383Z,3.85
